Time;durP1;ratioP1;P1;durP2;ratioP2;P2;SDS_P1;SDS_P2;PMS_P1;PMS_P2;Temp;Humidity;BMP_temperature;BMP_pressure;BME280_temperature;BME280_humidity;BME280_pressure;Samples;Min_cycle;Max_cycle;Signal;HPM_P1;HPM_P2
2022/10/23 00:01:36;;;;;;;4.68;2.50;;;12.80;81.80;;;11.45;100.00;96216.72;4757101;29;20760;-66
2022/10/23 00:04:13;;;;;;;5.00;2.30;;;12.80;81.80;;;11.42;100.00;96217.91;4768211;29;20739;-66
2022/10/23 00:06:40;;;;;;;3.30;1.92;;;12.70;81.90;;;11.35;100.00;96217.88;4768508;29;20430;-66
2022/10/23 00:09:07;;;;;;;5.03;2.10;;;12.70;82.00;;;11.34;100.00;96215.44;4759997;29;20255;-66
2022/10/23 00:11:33;;;;;;;4.40;2.67;;;12.60;82.10;;;11.31;100.00;96226.31;4757350;29;20335;-69
2022/10/23 00:14:01;;;;;;;7.70;2.50;;;12.60;82.00;;;11.28;100.00;96218.81;4765735;29;20362;-66
2022/10/23 00:16:27;;;;;;;4.53;2.45;;;12.60;82.10;;;11.26;100.00;96207.66;4754163;29;20349;-66
2022/10/23 00:18:53;;;;;;;3.40;2.17;;;12.60;82.20;;;11.25;100.00;96211.28;4753245;29;20292;-66
2022/10/23 00:21:19;;;;;;;5.05;2.70;;;12.60;82.30;;;11.20;100.00;96219.75;4749183;29;20541;-66
2022/10/23 00:23:45;;;;;;;5.40;2.60;;;12.60;82.30;;;11.20;100.00;96235.56;4773254;29;20336;-66
2022/10/23 00:26:20;;;;;;;3.55;2.47;;;12.60;82.30;;;11.19;100.00;96238.38;4764630;29;20040;-66
2022/10/23 00:28:49;;;;;;;4.90;2.72;;;12.60;82.30;;;11.15;100.00;96226.59;4763086;29;20365;-68
2022/10/23 00:31:16;;;;;;;4.57;2.85;;;12.50;82.20;;;11.11;100.00;96233.25;4762561;29;20346;-66
2022/10/23 00:33:42;;;;;;;7.47;2.92;;;12.50;82.30;;;11.09;100.00;96232.59;4783864;29;20421;-66
2022/10/23 00:36:10;;;;;;;4.47;2.60;;;12.40;82.30;;;11.06;100.00;96225.91;4748449;29;20829;-67
2022/10/23 00:38:36;;;;;;;4.43;2.50;;;12.40;82.40;;;11.03;100.00;96227.09;4771630;29;20368;-67
2022/10/23 00:41:03;;;;;;;5.40;2.70;;;12.40;82.40;;;11.01;100.00;96237.00;4757421;29;20393;-67
2022/10/23 00:43:30;;;;;;;4.32;2.78;;;12.30;82.60;;;10.98;100.00;96232.13;4753283;29;20361;-66
2022/10/23 00:45:56;;;;;;;7.95;2.60;;;12.30;82.60;;;10.98;100.00;96234.75;4737323;29;20693;-66
2022/10/23 00:48:22;;;;;;;5.88;2.85;;;12.30;82.40;;;10.96;100.00;96228.88;4767733;29;20045;-66
2022/10/23 00:50:49;;;;;;;4.97;2.58;;;12.30;82.50;;;10.93;100.00;96225.78;4773928;29;20290;-67
2022/10/23 00:53:16;;;;;;;3.80;2.63;;;12.30;82.50;;;10.92;100.00;96224.16;4770410;29;20464;-66
2022/10/23 00:55:46;;;;;;;3.63;2.60;;;12.20;82.50;;;10.89;100.00;96220.09;4752088;29;20365;-66
2022/10/23 00:58:17;;;;;;;4.03;2.60;;;12.20;82.50;;;10.87;100.00;96226.56;4754667;29;20752;-66
2022/10/23 01:00:45;;;;;;;;;;;12.20;82.70;;;10.83;100.00;96231.34;4743272;29;20275;-66
2022/10/23 01:03:13;;;;;;;3.92;2.55;;;12.20;82.70;;;10.79;100.00;96224.84;4778091;29;20378;-66
2022/10/23 01:06:06;;;;;;;3.53;2.50;;;12.20;82.80;;;10.76;100.00;96227.84;4754917;29;20507;-66
2022/10/23 01:09:27;;;;;;;5.35;2.75;;;12.20;82.90;;;10.74;100.00;96220.16;4769518;29;20400;-67
2022/10/23 01:12:26;;;;;;;4.38;2.30;;;12.10;82.70;;;10.71;100.00;96209.19;4773726;29;20484;-67
2022/10/23 01:15:18;;;;;;;6.28;2.92;;;12.10;82.70;;;10.70;100.00;96207.56;4793534;29;20368;-67
2022/10/23 01:18:07;;;;;;;3.63;2.10;;;12.10;82.80;;;10.66;100.00;96201.84;4758103;29;20353;-67
2022/10/23 01:20:39;;;;;;;2.83;2.00;;;12.10;82.90;;;10.64;100.00;96203.88;4753775;29;20278;-66
2022/10/23 01:23:42;;;;;;;4.82;2.28;;;12.00;82.90;;;10.64;100.00;96203.06;4796671;29;20388;-66
2022/10/23 01:26:43;;;;;;;3.45;2.20;;;12.00;83.00;;;10.62;100.00;96197.13;4796265;29;20891;-66
2022/10/23 01:29:35;;;;;;;3.10;1.95;;;12.00;82.90;;;10.60;100.00;96193.88;4751706;29;20538;-66
2022/10/23 01:32:29;;;;;;;7.13;1.90;;;11.90;82.80;;;10.57;100.00;96194.25;4771468;29;20572;-67
2022/10/23 01:35:15;;;;;;;3.78;1.52;;;11.90;82.70;;;10.52;100.00;96199.25;4769849;29;20557;-66
2022/10/23 01:37:54;;;;;;;4.03;2.00;;;11.80;82.00;;;10.49;100.00;96199.63;4805274;29;20045;-65
2022/10/23 01:40:31;;;;;;;2.92;2.00;;;11.80;82.30;;;10.46;100.00;96200.00;4823435;29;20028;-65
2022/10/23 01:43:03;;;;;;;4.93;1.83;;;11.80;82.00;;;10.43;100.00;96202.00;4757943;29;20389;-66
2022/10/23 01:45:46;;;;;;;2.95;1.85;;;11.80;81.80;;;10.40;100.00;96205.00;4745919;29;20786;-66
2022/10/23 01:48:15;;;;;;;6.20;1.92;;;11.70;82.20;;;10.36;100.00;96203.72;4778574;29;20452;-66
2022/10/23 01:50:41;;;;;;;3.58;1.85;;;11.70;82.80;;;10.32;100.00;96199.84;4781915;29;20464;-65
2022/10/23 01:53:07;;;;;;;8.98;1.75;;;11.60;82.80;;;10.30;100.00;96195.78;4752592;29;20323;-66
2022/10/23 01:55:33;;;;;;;4.70;1.92;;;11.60;82.70;;;10.28;100.00;96198.59;4746476;29;20404;-66
2022/10/23 01:58:00;;;;;;;4.53;2.22;;;11.60;82.90;;;10.28;100.00;96197.78;4770927;29;20465;-65
2022/10/23 02:00:26;;;;;;;3.80;2.42;;;11.60;83.40;;;10.25;100.00;96193.72;4788722;29;20490;-66
2022/10/23 02:02:53;;;;;;;4.13;1.92;;;11.60;83.50;;;10.23;100.00;96190.44;4761008;29;20358;-67
2022/10/23 02:05:28;;;;;;;5.70;2.00;;;11.60;83.50;;;10.23;100.00;96185.19;4758364;29;20356;-65
2022/10/23 02:07:54;;;;;;;5.07;2.22;;;11.60;83.60;;;10.20;100.00;96185.53;4766624;29;20425;-69
2022/10/23 02:10:21;;;;;;;3.83;2.28;;;11.60;83.70;;;10.19;100.00;96176.03;4752454;29;20461;-66
2022/10/23 02:13:25;;;;;;;3.88;2.22;;;11.60;83.70;;;10.17;100.00;96175.34;4745009;29;20365;-66
2022/10/23 02:16:50;;;;;;;5.15;2.10;;;11.50;83.90;;;10.14;100.00;96166.03;4786368;29;20461;-66
2022/10/23 02:19:53;;;;;;;4.70;2.30;;;11.50;84.00;;;10.13;100.00;96148.63;4716020;29;20429;-66
2022/10/23 02:22:36;;;;;;;5.38;1.90;;;11.50;83.80;;;10.10;100.00;96142.94;4752460;29;20377;-66
2022/10/23 02:25:16;;;;;;;4.43;2.70;;;11.50;83.80;;;10.09;100.00;96143.94;4760042;29;20399;-66
2022/10/23 02:27:51;;;;;;;3.33;2.10;;;11.40;83.90;;;10.06;100.00;96146.94;4763612;29;20522;-66
2022/10/23 02:30:18;;;;;;;4.45;2.00;;;11.50;83.70;;;10.04;100.00;96152.38;4760795;29;20888;-67
2022/10/23 02:32:49;;;;;;;2.83;1.83;;;11.50;83.80;;;10.06;100.00;96144.31;4739533;29;20358;-67
2022/10/23 02:35:19;;;;;;;4.78;1.80;;;11.50;83.80;;;10.03;100.00;96142.06;4750417;29;20747;-66
2022/10/23 02:37:59;;;;;;;2.70;1.77;;;11.50;83.80;;;10.02;100.00;96145.69;4749263;29;20400;-67
2022/10/23 02:40:32;;;;;;;3.08;1.83;;;11.40;83.90;;;10.01;100.00;96149.31;4766454;29;20654;-67
2022/10/23 02:43:16;;;;;;;6.18;2.03;;;11.40;84.00;;;10.01;100.00;96155.38;4758395;29;20346;-67
2022/10/23 02:46:36;;;;;;;2.30;1.60;;;11.40;83.70;;;9.99;100.00;96149.50;4771029;29;20374;-67
2022/10/23 02:49:14;;;;;;;3.25;1.80;;;11.40;83.30;;;9.97;100.00;96145.44;4781228;29;20491;-68
2022/10/23 02:52:08;;;;;;;6.00;1.60;;;11.40;83.30;;;9.97;100.00;96153.31;4752982;29;20354;-66
2022/10/23 02:55:05;;;;;;;3.80;1.60;;;11.40;83.10;;;9.94;100.00;96143.13;4768132;29;20712;-67
2022/10/23 02:57:38;;;;;;;2.90;1.77;;;11.40;83.20;;;9.94;100.00;96137.88;4756657;29;20773;-67
2022/10/23 03:00:16;;;;;;;3.05;1.55;;;11.40;83.20;;;9.93;100.00;96142.31;4754812;29;20451;-67
2022/10/23 03:03:00;;;;;;;2.95;1.70;;;11.40;83.30;;;9.95;100.00;96139.50;4766284;29;20508;-67
2022/10/23 03:05:32;;;;;;;5.45;1.60;;;11.40;83.50;;;9.93;100.00;96133.63;4779489;29;20568;-67
2022/10/23 03:07:58;;;;;;;2.92;1.83;;;11.40;83.50;;;9.94;100.00;96128.19;4739876;29;20729;-67
2022/10/23 03:10:26;;;;;;;2.92;1.80;;;11.40;83.90;;;9.93;100.00;96131.00;4754201;29;20412;-66
2022/10/23 03:12:52;;;;;;;4.43;1.65;;;11.40;84.00;;;9.93;100.00;96126.56;4752444;29;20424;-67
2022/10/23 03:15:18;;;;;;;5.07;2.00;;;11.40;84.00;;;9.94;100.00;96124.75;4771180;29;20444;-66
2022/10/23 03:17:44;;;;;;;3.28;1.45;;;11.40;83.90;;;9.92;100.00;96121.50;4750740;29;20334;-67
2022/10/23 03:20:11;;;;;;;4.13;1.60;;;11.40;83.80;;;9.91;100.00;96122.50;4753880;29;20361;-66
2022/10/23 03:22:37;;;;;;;2.30;1.42;;;11.40;83.90;;;9.92;100.00;96119.69;4760697;29;20778;-65
2022/10/23 03:25:03;;;;;;;3.67;1.52;;;11.40;83.90;;;9.91;100.00;96133.00;4781744;29;20681;-66
2022/10/23 03:27:29;;;;;;;4.22;1.48;;;11.30;83.90;;;9.91;100.00;96138.25;4770048;29;20334;-65
2022/10/23 03:29:56;;;;;;;3.03;1.40;;;11.40;83.80;;;9.91;100.00;96130.38;4774138;29;20350;-66
2022/10/23 03:32:22;;;;;;;2.50;1.45;;;11.40;83.70;;;9.90;100.00;96123.50;4755264;29;20457;-66
2022/10/23 03:34:48;;;;;;;2.00;1.27;;;11.40;83.60;;;9.87;100.00;96118.59;4753367;29;20362;-66
2022/10/23 03:37:14;;;;;;;4.55;2.08;;;11.30;83.60;;;9.87;100.00;96108.91;4744312;29;20374;-67
2022/10/23 03:39:40;;;;;;;2.53;1.60;;;11.40;83.60;;;9.87;100.00;96110.72;4753524;29;20361;-66
2022/10/23 03:42:10;;;;;;;2.13;1.42;;;11.40;83.70;;;9.88;100.00;96114.97;4760500;29;20382;-66
2022/10/23 03:44:36;;;;;;;2.80;1.60;;;11.40;83.70;;;9.88;100.00;96120.22;4737935;29;20340;-66
2022/10/23 03:47:05;;;;;;;2.55;1.73;;;11.40;83.60;;;9.87;100.00;96131.75;4755582;29;20225;-66
2022/10/23 03:49:31;;;;;;;2.42;1.55;;;11.40;83.70;;;9.87;100.00;96137.00;4768026;29;20383;-67
2022/10/23 03:51:58;;;;;;;2.85;1.70;;;11.30;83.50;;;9.83;100.00;96126.03;4802395;29;20357;-67
2022/10/23 03:54:25;;;;;;;2.90;1.58;;;11.30;83.40;;;9.81;100.00;96128.84;4754174;29;20330;-67
2022/10/23 03:56:52;;;;;;;1.52;1.17;;;11.20;83.30;;;9.79;100.00;96125.59;4762087;29;20327;-62
2022/10/23 03:59:19;;;;;;;2.75;1.45;;;11.20;83.30;;;9.77;100.00;96124.97;4745500;29;20701;-65
2022/10/23 04:01:45;;;;;;;4.95;4.13;;;11.20;83.20;;;9.75;100.00;96123.53;4764875;29;20405;-65
2022/10/23 04:04:11;;;;;;;29.48;21.98;;;11.20;83.40;;;9.74;100.00;96120.09;4752489;29;20490;-63
2022/10/23 04:06:37;;;;;;;18.88;13.90;;;11.20;83.90;;;9.72;100.00;96116.81;4744840;29;20495;-63
2022/10/23 04:09:04;;;;;;;5.10;3.53;;;11.20;84.20;;;9.70;100.00;96110.91;4767385;29;20425;-61
2022/10/23 04:11:30;;;;;;;3.97;2.13;;;11.10;83.90;;;9.71;100.00;96112.56;4767352;29;20369;-63
2022/10/23 04:13:56;;;;;;;2.72;1.80;;;11.10;83.70;;;9.69;100.00;96111.91;4750826;29;20533;-62
2022/10/23 04:16:23;;;;;;;4.70;1.83;;;11.10;83.60;;;9.67;100.00;96107.84;4787083;29;20583;-62
2022/10/23 04:18:49;;;;;;;2.92;1.80;;;11.10;83.40;;;9.65;100.00;96113.28;4787890;29;20992;-64
2022/10/23 04:21:15;;;;;;;3.55;1.65;;;11.10;83.30;;;9.62;100.00;96118.91;4764065;29;20393;-63
2022/10/23 04:23:42;;;;;;;4.00;1.90;;;11.10;83.20;;;9.59;100.00;96121.91;4769248;29;20471;-66
2022/10/23 04:26:08;;;;;;;5.10;1.83;;;11.00;83.30;;;9.56;100.00;96114.41;4785399;29;20935;-65
2022/10/23 04:28:34;;;;;;;3.33;2.03;;;11.00;83.30;;;9.54;100.00;96111.13;4763945;29;20401;-66
2022/10/23 04:31:01;;;;;;;19.90;14.70;;;11.00;83.40;;;9.52;100.00;96110.50;4763302;29;20498;-66
2022/10/23 04:33:29;;;;;;;12.38;9.45;;;11.00;83.70;;;9.51;100.00;96106.25;4746355;29;20224;-66
2022/10/23 04:35:56;;;;;;;5.00;2.50;;;11.00;83.70;;;9.48;100.00;96111.84;4778004;29;20373;-66
2022/10/23 04:38:28;;;;;;;2.78;1.95;;;10.90;83.50;;;9.45;100.00;96118.28;4770354;29;20839;-66
2022/10/23 04:40:54;;;;;;;2.58;2.00;;;10.90;83.60;;;9.43;100.00;96117.66;4752557;29;20464;-66
2022/10/23 04:43:21;;;;;;;4.05;2.00;;;10.80;83.60;;;9.41;100.00;96119.63;4759917;29;20572;-66
2022/10/23 04:45:48;;;;;;;4.05;1.80;;;10.80;83.60;;;9.39;100.00;96118.19;4769007;29;20365;-66
2022/10/23 04:48:14;;;;;;;2.90;1.90;;;10.80;83.60;;;9.36;100.00;96118.56;4752077;29;20918;-66
2022/10/23 04:50:40;;;;;;;2.60;1.63;;;10.80;83.50;;;9.34;100.00;96120.56;4749005;29;20056;-67
2022/10/23 04:53:25;;;;;;;3.22;1.80;;;10.80;83.40;;;9.34;100.00;96112.69;4772884;29;20316;-66
2022/10/23 04:55:53;;;;;;;2.08;1.50;;;10.80;83.30;;;9.33;100.00;96108.41;4769060;29;20369;-66
2022/10/23 04:58:19;;;;;;;1.92;1.52;;;10.80;83.10;;;9.31;100.00;96099.91;4768285;29;20369;-67
2022/10/23 05:00:46;;;;;;;2.33;1.73;;;10.70;83.10;;;9.30;100.00;96103.53;4783644;29;20405;-65
2022/10/23 05:03:12;;;;;;;1.75;1.45;;;10.70;83.00;;;9.27;100.00;96109.94;4750857;29;20375;-67
2022/10/23 05:05:38;;;;;;;4.65;1.92;;;10.70;82.90;;;9.24;100.00;96104.25;4756655;29;20844;-66
2022/10/23 05:08:04;;;;;;;2.58;1.50;;;10.60;82.90;;;9.23;100.00;96103.44;4752412;29;20415;-69
2022/10/23 05:10:31;;;;;;;1.95;1.70;;;10.70;82.90;;;9.22;100.00;96093.91;4750546;29;20369;-69
2022/10/23 05:12:57;;;;;;;4.10;1.90;;;10.70;82.80;;;9.21;100.00;96092.28;4770173;29;20360;-69
2022/10/23 05:15:23;;;;;;;2.38;1.80;;;10.60;82.80;;;9.15;100.00;96085.97;4767064;29;20446;-68
2022/10/23 05:17:51;;;;;;;10.32;2.00;;;10.60;82.80;;;9.11;100.00;96082.06;4750104;29;20335;-63
2022/10/23 05:20:21;;;;;;;4.15;2.10;;;10.60;82.90;;;9.07;100.00;96075.56;4727085;29;20410;-66
2022/10/23 05:22:50;;;;;;;2.57;1.93;;;10.50;82.90;;;9.04;100.00;96073.28;4742915;29;20442;-66
2022/10/23 05:25:16;;;;;;;2.40;1.70;;;10.50;83.00;;;9.01;100.00;96068.38;4746656;29;20433;-64
2022/10/23 05:27:42;;;;;;;2.30;1.60;;;10.50;83.30;;;9.00;100.00;96068.56;4772454;29;20693;-66
2022/10/23 05:30:09;;;;;;;3.03;1.70;;;10.40;83.60;;;9.00;100.00;96076.44;4760901;29;20780;-65
2022/10/23 05:32:35;;;;;;;3.30;2.13;;;10.50;83.70;;;9.00;100.00;96081.69;4763930;29;20323;-65
2022/10/23 05:35:06;;;;;;;3.20;1.95;;;10.50;84.00;;;9.01;100.00;96078.88;4766599;29;20819;-65
2022/10/23 05:37:32;;;;;;;3.50;2.00;;;10.50;84.10;;;9.02;100.00;96085.75;4761487;29;20357;-67
2022/10/23 05:39:58;;;;;;;2.40;1.80;;;10.50;84.00;;;9.02;100.00;96091.00;4752309;29;20330;-64
2022/10/23 05:42:24;;;;;;;3.40;2.20;;;10.60;83.90;;;9.01;100.00;96086.75;4767640;29;20508;-66
2022/10/23 05:44:50;;;;;;;2.67;2.08;;;10.50;83.80;;;9.02;100.00;96085.75;4777009;29;20208;-65
2022/10/23 05:47:16;;;;;;;3.58;2.28;;;10.50;83.80;;;9.03;100.00;96090.00;4758989;29;20349;-66
2022/10/23 05:49:42;;;;;;;3.30;2.20;;;10.50;83.60;;;9.01;100.00;96086.75;4769177;29;20509;-66
2022/10/23 05:52:12;;;;;;;3.78;2.05;;;10.50;83.40;;;9.01;100.00;96084.13;4769297;29;20545;-66
2022/10/23 05:54:38;;;;;;;3.30;2.40;;;10.50;83.20;;;8.99;100.00;96080.88;4767204;29;20334;-64
2022/10/23 05:57:04;;;;;;;10.02;6.38;;;10.50;83.10;;;8.98;100.00;96089.75;4773192;29;20934;-63
2022/10/23 05:59:30;;;;;;;12.32;9.27;;;10.50;83.00;;;8.98;100.00;96092.38;4747809;29;20453;-63
2022/10/23 06:01:56;;;;;;;8.00;5.82;;;10.50;83.10;;;8.97;100.00;96093.34;4763967;29;20216;-63
2022/10/23 06:04:22;;;;;;;14.07;10.65;;;10.50;82.80;;;8.97;100.00;96098.59;4769661;29;20472;-65
2022/10/23 06:06:48;;;;;;;13.40;9.43;;;10.50;82.80;;;8.97;100.00;96095.97;4754692;29;20464;-63
2022/10/23 06:09:15;;;;;;;7.05;5.82;;;10.50;82.80;;;8.94;100.00;96093.72;4764529;29;20357;-65
2022/10/23 06:11:41;;;;;;;9.45;3.20;;;10.50;82.70;;;8.94;100.00;96085.84;4772284;29;20509;-63
2022/10/23 06:14:07;;;;;;;4.03;2.00;;;10.50;82.70;;;8.92;100.00;96093.09;4754813;29;20594;-64
2022/10/23 06:16:34;;;;;;;3.67;2.15;;;10.50;82.30;;;8.89;100.00;96091.63;4752559;29;20208;-66
2022/10/23 06:19:00;;;;;;;4.15;1.90;;;10.50;81.70;;;8.87;100.00;96085.75;4766514;29;20361;-66
2022/10/23 06:21:26;;;;;;;2.92;1.98;;;10.40;81.30;;;8.82;100.00;96089.88;4751734;29;20200;-65
2022/10/23 06:23:52;;;;;;;2.72;1.90;;;10.30;81.50;;;8.78;100.00;96091.25;4778753;29;20260;-68
2022/10/23 06:26:18;;;;;;;16.60;13.50;;;10.30;81.40;;;8.77;100.00;96097.47;4752054;29;20677;-67
2022/10/23 06:28:45;;;;;;;23.45;17.75;;;10.30;81.70;;;8.78;100.00;96099.91;4771314;29;20420;-68
2022/10/23 06:31:14;;;;;;;13.43;10.23;;;10.40;82.30;;;8.78;100.00;96097.28;4764388;29;20590;-67
2022/10/23 06:33:40;;;;;;;3.35;2.80;;;10.40;82.40;;;8.81;100.00;96104.00;4751488;29;20342;-66
2022/10/23 06:36:09;;;;;;;5.22;2.35;;;10.50;82.30;;;8.85;100.00;96105.28;4760676;29;20789;-63
2022/10/23 06:38:39;;;;;;;2.70;1.90;;;10.50;82.40;;;8.88;100.00;96103.13;4745280;29;20412;-63
2022/10/23 06:41:11;;;;;;;5.53;1.90;;;10.50;82.20;;;8.92;100.00;96106.19;4737233;29;20402;-62
2022/10/23 06:43:37;;;;;;;2.97;1.90;;;10.60;82.60;;;8.97;100.00;96093.34;4780202;29;20737;-64
2022/10/23 06:46:04;;;;;;;2.33;1.80;;;10.70;82.70;;;9.04;100.00;96093.44;4789549;29;20052;-63
2022/10/23 06:48:30;;;;;;;2.17;1.75;;;10.90;83.00;;;9.11;100.00;96097.81;4774159;29;20228;-64
2022/10/23 06:50:57;;;;;;;2.42;1.80;;;11.00;83.20;;;9.20;100.00;96096.72;4763391;29;20423;-63
2022/10/23 06:53:23;;;;;;;4.97;1.60;;;11.10;82.90;;;9.29;100.00;96099.28;4744544;29;20498;-63
2022/10/23 06:55:50;;;;;;;2.42;1.50;;;11.20;82.80;;;9.39;100.00;96092.75;4752881;29;20369;-64
2022/10/23 06:58:17;;;;;;;2.17;1.70;;;11.40;82.50;;;9.50;100.00;96088.84;4739679;29;20391;-63
2022/10/23 07:00:43;;;;;;;4.75;1.83;;;11.50;82.30;;;9.61;100.00;96090.22;4750627;29;20384;-63
2022/10/23 07:03:09;;;;;;;3.28;1.67;;;11.60;81.80;;;9.72;100.00;96076.59;4751994;29;20365;-64
2022/10/23 07:05:35;;;;;;;2.70;2.13;;;11.70;81.50;;;9.81;100.00;96086.81;4764585;29;20768;-64
2022/10/23 07:08:03;;;;;;;5.53;4.45;;;11.90;81.00;;;9.93;100.00;96083.72;4752338;29;20456;-64
2022/10/23 07:10:30;;;;;;;5.80;3.88;;;12.10;80.70;;;10.06;100.00;96089.13;4764376;29;20766;-63
2022/10/23 07:12:59;;;;;;;5.00;4.15;;;12.20;80.00;;;10.23;100.00;96090.56;4753951;29;20828;-65
2022/10/23 07:15:26;;;;;;;27.77;20.23;;;12.60;79.40;;;10.40;100.00;96091.09;4769182;29;20430;-65
2022/10/23 07:17:52;;;;;;;12.00;9.85;;;12.70;79.00;;;10.56;100.00;96090.03;4768508;29;20382;-65
2022/10/23 07:20:19;;;;;;;5.03;3.85;;;13.10;78.40;;;10.74;100.00;96077.25;4750832;29;20370;-67
2022/10/23 07:22:53;;;;;;;3.28;2.20;;;13.40;77.40;;;10.95;100.00;96087.75;4754119;29;20344;-64
2022/10/23 07:25:21;;;;;;;2.90;1.95;;;13.70;76.20;;;11.15;100.00;96095.78;4782830;29;20429;-64
2022/10/23 07:27:47;;;;;;;2.80;2.03;;;14.10;75.00;;;11.34;100.00;96096.94;4765103;29;20805;-65
2022/10/23 07:30:13;;;;;;;3.25;2.65;;;14.30;73.60;;;11.49;100.00;96084.44;4752369;29;20424;-66
2022/10/23 07:32:39;;;;;;;2.85;2.50;;;14.40;72.70;;;11.59;100.00;96087.53;4751069;29;20312;-67
2022/10/23 07:35:09;;;;;;;2.40;2.00;;;14.40;72.00;;;11.71;100.00;96081.69;4752387;29;20323;-64
2022/10/23 07:37:35;;;;;;;3.08;2.22;;;14.60;71.50;;;11.86;100.00;96088.50;4767166;29;20437;-65
2022/10/23 07:40:05;;;;;;;3.17;1.90;;;14.80;70.80;;;12.00;100.00;96081.47;4759541;29;20430;-64
2022/10/23 07:42:31;;;;;;;2.55;1.95;;;15.00;70.00;;;12.15;100.00;96091.81;4772234;29;20363;-67
2022/10/23 07:44:57;;;;;;;3.92;2.60;;;15.10;69.70;;;12.29;100.00;96084.78;4770173;29;20365;-64
2022/10/23 07:47:23;;;;;;;3.28;2.20;;;15.40;69.70;;;12.46;100.00;96091.31;4757973;29;20396;-63
2022/10/23 07:49:49;;;;;;;2.95;2.10;;;15.50;69.70;;;12.61;100.00;96081.34;4810684;29;20830;-66
2022/10/23 07:52:15;;;;;;;3.08;2.17;;;15.70;69.60;;;12.76;100.00;96089.91;4749606;29;20258;-66
2022/10/23 07:54:42;;;;;;;2.00;1.75;;;15.90;68.40;;;12.89;100.00;96097.00;4758567;29;20458;-66
2022/10/23 07:57:10;;;;;;;3.70;2.30;;;16.10;68.40;;;13.01;100.00;96091.94;4770285;29;20392;-65
2022/10/23 07:59:37;;;;;;;3.53;1.95;;;16.20;67.30;;;13.15;100.00;96093.56;4751647;29;20367;-66
2022/10/23 08:02:03;;;;;;;15.07;10.45;;;16.50;66.60;;;13.34;100.00;96090.09;4774206;29;20201;-67
2022/10/23 08:04:29;;;;;;;12.10;10.07;;;16.90;66.10;;;13.54;100.00;96079.47;4755728;29;20417;-66
2022/10/23 08:06:55;;;;;;;4.25;2.88;;;17.10;64.80;;;13.70;100.00;96076.38;4753448;29;20796;-66
2022/10/23 08:09:22;;;;;;;3.78;1.80;;;17.30;64.90;;;13.93;100.00;96070.59;4785131;29;20463;-66
2022/10/23 08:11:48;;;;;;;3.28;1.60;;;17.60;63.90;;;14.16;100.00;96058.69;4756084;29;20513;-66
2022/10/23 08:14:14;;;;;;;2.78;1.25;;;18.10;63.20;;;14.39;100.00;96066.88;4768099;29;20338;-67
2022/10/23 08:16:40;;;;;;;2.28;1.30;;;18.20;61.40;;;14.59;100.00;96057.00;4766211;29;20687;-66
2022/10/23 08:19:07;;;;;;;1.30;1.10;;;18.50;60.90;;;14.87;100.00;96063.72;4756018;29;20369;-66
2022/10/23 08:21:33;;;;;;;2.13;1.48;;;18.70;60.50;;;15.02;100.00;96064.22;4782222;29;20414;-64
2022/10/23 08:24:00;;;;;;;2.88;1.38;;;18.50;60.50;;;15.21;100.00;96063.22;4766711;29;20699;-67
2022/10/23 08:26:28;;;;;;;1.85;1.10;;;18.70;60.70;;;15.40;100.00;96065.91;4750846;29;20275;-65
2022/10/23 08:28:55;;;;;;;2.05;1.20;;;18.80;60.40;;;15.56;100.00;96065.31;4751165;29;20453;-65
2022/10/23 08:31:21;;;;;;;2.00;1.30;;;19.00;59.20;;;15.68;100.00;96063.56;4764507;29;20396;-65
2022/10/23 08:33:47;;;;;;;2.35;1.20;;;18.90;59.80;;;15.78;98.49;96069.16;4746914;29;20350;-65
2022/10/23 08:36:24;;;;;;;2.72;1.38;;;19.00;58.70;;;15.87;96.61;96067.84;4793396;29;20219;-66
2022/10/23 08:38:52;;;;;;;3.42;1.02;;;19.10;59.40;;;16.00;98.18;96066.03;4749571;29;20450;-66
2022/10/23 08:41:36;;;;;;;0.88;0.80;;;19.30;58.70;;;16.10;92.22;96071.66;4763499;29;20785;-65
2022/10/23 08:44:33;;;;;;;1.92;1.00;;;19.20;58.00;;;16.13;90.86;96069.34;4766050;29;20358;-67
2022/10/23 08:47:06;;;;;;;1.73;1.05;;;19.10;57.60;;;16.17;95.05;96065.22;4781979;29;20349;-65
2022/10/23 08:49:48;;;;;;;2.90;1.13;;;19.40;58.10;;;16.35;93.75;96059.03;4786406;29;20364;-66
2022/10/23 08:52:52;;;;;;;2.42;1.00;;;19.70;58.10;;;16.56;92.24;96052.41;4764468;29;20682;-67
2022/10/23 08:55:24;;;;;;;5.40;2.53;;;20.10;57.30;;;16.79;91.93;96060.47;4754524;29;20585;-63
2022/10/23 08:57:57;;;;;;;3.30;1.10;;;20.80;55.20;;;17.09;91.16;96055.06;4785155;29;20498;-67
2022/10/23 09:00:23;;;;;;;5.75;1.30;;;21.20;54.10;;;17.26;91.47;96049.84;4751410;29;20407;-69
2022/10/23 09:02:51;;;;;;;3.33;1.30;;;21.00;53.60;;;17.44;91.79;96047.06;4762517;29;20380;-69
2022/10/23 09:05:32;;;;;;;6.43;2.28;;;21.10;54.50;;;17.60;86.96;96047.38;4774049;29;20364;-68
2022/10/23 09:08:16;;;;;;;9.82;3.90;;;21.20;53.90;;;17.80;85.40;96044.38;4789882;29;20582;-68
2022/10/23 09:11:05;;;;;;;7.13;3.80;;;21.70;52.60;;;17.96;84.42;96033.78;4790503;29;20188;-68
2022/10/23 09:14:08;;;;;;;3.20;1.20;;;21.90;51.90;;;18.12;82.32;96029.59;4768819;29;20901;-68
2022/10/23 09:17:05;;;;;;;1.30;0.90;;;22.20;51.10;;;18.31;82.37;96023.00;4787158;29;20377;-69
2022/10/23 09:19:32;;;;;;;15.98;12.10;;;22.90;49.60;;;18.55;87.29;96023.66;4797965;29;20396;-69
2022/10/23 09:21:58;;;;;;;3.17;2.13;;;23.80;48.30;;;18.83;85.43;96014.84;4787806;29;20316;-69
2022/10/23 09:24:25;;;;;;;2.92;1.45;;;24.50;46.20;;;19.09;84.34;96016.03;4756058;29;20362;-71
2022/10/23 09:26:52;;;;;;;3.55;1.58;;;25.20;44.70;;;19.39;83.88;96015.66;4751267;29;20700;-67
2022/10/23 09:29:22;;;;;;;1.38;0.90;;;26.20;42.80;;;19.72;82.52;96003.31;4757274;29;20421;-68
2022/10/23 09:31:56;;;;;;;1.10;0.73;;;27.30;40.80;;;20.11;77.81;96002.13;4769846;29;20365;-69
2022/10/23 09:34:24;;;;;;;1.42;0.80;;;27.50;39.50;;;20.48;79.92;95996.13;4751263;29;20185;-64
2022/10/23 09:36:57;;;;;;;1.77;0.90;;;28.20;39.00;;;20.88;75.67;95994.84;4753127;29;20205;-66
2022/10/23 09:39:32;;;;;;;1.58;1.00;;;29.00;37.60;;;21.26;74.90;95991.91;4764418;29;20581;-65
2022/10/23 09:42:01;;;;;;;1.50;1.00;;;29.50;36.90;;;21.68;78.01;95993.75;4755598;29;20216;-68
2022/10/23 09:44:33;;;;;;;5.30;3.15;;;30.30;35.30;;;22.08;70.67;95994.97;4770914;29;20393;-66
2022/10/23 09:47:06;;;;;;;2.13;1.30;;;30.20;35.00;;;22.38;69.19;95999.59;4758727;29;20207;-66
2022/10/23 09:49:32;;;;;;;1.58;0.90;;;30.20;35.60;;;22.72;74.30;95989.97;4772862;29;20346;-67
2022/10/23 09:52:10;;;;;;;1.73;0.90;;;30.80;34.20;;;22.90;66.49;95986.00;4754220;29;20772;-66
2022/10/23 09:54:52;;;;;;;3.00;0.82;;;30.20;35.40;;;23.12;64.99;95981.13;4771197;29;20335;-66
2022/10/23 09:57:41;;;;;;;1.05;0.70;;;30.80;34.10;;;23.61;62.96;95988.56;4761857;29;20353;-66
2022/10/23 10:00:13;;;;;;;2.08;0.80;;;32.40;32.20;;;24.19;63.54;95988.81;4763227;29;20489;-66
2022/10/23 10:02:40;;;;;;;2.78;0.77;;;34.00;30.20;;;24.66;68.42;95982.06;4774851;29;20590;-66
2022/10/23 10:05:37;;;;;;;4.28;0.80;;;34.10;30.00;;;25.01;59.82;95962.16;4782475;29;20468;-66
2022/10/23 10:08:45;;;;;;;3.90;1.00;;;34.50;29.60;;;25.78;56.54;95962.16;4779180;29;20493;-66
2022/10/23 10:11:19;;;;;;;0.70;0.60;;;36.70;27.10;;;26.39;60.60;95964.06;4769215;29;20526;-68
2022/10/23 10:14:52;;;;;;;1.23;0.52;;;38.10;25.20;;;27.28;53.35;95953.94;4762907;29;20423;-67
2022/10/23 10:17:23;;;;;;;2.85;1.85;;;39.40;24.00;;;27.79;55.00;95957.59;4702556;29;20339;-66
2022/10/23 10:20:01;;;;;;;2.25;1.02;;;40.20;22.90;;;28.16;51.75;95961.94;4772712;29;20472;-67
2022/10/23 10:22:50;;;;;;;1.73;0.82;;;39.40;23.40;;;28.51;50.39;95961.16;4802630;29;20689;-65
2022/10/23 10:25:20;;;;;;;0.97;0.57;;;39.70;23.30;;;28.70;55.09;95963.69;4783870;29;20341;-66
2022/10/23 10:28:21;;;;;;;1.20;0.80;;;38.90;23.20;;;28.62;50.07;95949.00;4762201;29;20716;-65
2022/10/23 10:31:05;;;;;;;2.40;0.50;;;38.40;24.30;;;28.47;46.58;95954.75;4760011;29;20330;-64
2022/10/23 10:34:11;;;;;;;1.52;0.47;;;37.10;25.10;;;27.83;46.54;95951.25;4768835;29;20555;-70
2022/10/23 10:36:59;;;;;;;2.85;0.70;;;35.00;27.50;;;27.51;46.09;95952.16;4785092;29;20334;-65